sensor_id;sensor_type;location;lat;lon;timestamp;pressure;altitude;pressure_sealevel;temperature;humidity
70909;BME280;58554;52.006;5.926;2023-02-11T00:01:12;102517.91;;;5.16;82.91
70909;BME280;58554;52.006;5.926;2023-02-11T00:03:44;102520.53;;;5.18;82.91
70909;BME280;58554;52.006;5.926;2023-02-11T00:06:10;102512.72;;;5.15;83.63
70909;BME280;58554;52.006;5.926;2023-02-11T00:08:37;102517.91;;;5.16;83.15
70909;BME280;58554;52.006;5.926;2023-02-11T00:11:11;102528.41;;;5.18;82.73
70909;BME280;58554;52.006;5.926;2023-02-11T00:13:39;102527.53;;;5.19;82.50
70909;BME280;58554;52.006;5.926;2023-02-11T00:16:07;102515.28;;;5.19;82.45
70909;BME280;58554;52.006;5.926;2023-02-11T00:18:36;102525.78;;;5.19;82.47
70909;BME280;58554;52.006;5.926;2023-02-11T00:21:05;102522.25;;;5.20;82.62
70909;BME280;58554;52.006;5.926;2023-02-11T00:23:33;102506.56;;;5.17;83.27
70909;BME280;58554;52.006;5.926;2023-02-11T00:26:00;102511.81;;;5.17;82.84
70909;BME280;58554;52.006;5.926;2023-02-11T00:28:29;102520.53;;;5.16;82.92
70909;BME280;58554;52.006;5.926;2023-02-11T00:30:56;102515.34;;;5.15;82.78
70909;BME280;58554;52.006;5.926;2023-02-11T00:33:23;102509.19;;;5.14;82.78
70909;BME280;58554;52.006;5.926;2023-02-11T00:35:50;102511.81;;;5.14;82.92
70909;BME280;58554;52.006;5.926;2023-02-11T00:38:16;102527.59;;;5.13;82.85
70909;BME280;58554;52.006;5.926;2023-02-11T00:40:43;102520.59;;;5.12;82.70
70909;BME280;58554;52.006;5.926;2023-02-11T00:43:09;102538.94;;;5.13;82.77
70909;BME280;58554;52.006;5.926;2023-02-11T00:45:38;102536.31;;;5.15;82.39
70909;BME280;58554;52.006;5.926;2023-02-11T00:48:05;102539.78;;;5.15;82.36
70909;BME280;58554;52.006;5.926;2023-02-11T00:50:32;102520.53;;;5.16;82.48
70909;BME280;58554;52.006;5.926;2023-02-11T00:52:58;102525.78;;;5.16;82.77
70909;BME280;58554;52.006;5.926;2023-02-11T00:55:26;102525.81;;;5.15;82.92
70909;BME280;58554;52.006;5.926;2023-02-11T00:57:52;102527.53;;;5.14;83.13
70909;BME280;58554;52.006;5.926;2023-02-11T01:00:19;102535.41;;;5.14;83.09
70909;BME280;58554;52.006;5.926;2023-02-11T01:02:48;102521.44;;;5.15;82.85
70909;BME280;58554;52.006;5.926;2023-02-11T01:05:15;102518.81;;;5.17;82.82
70909;BME280;58554;52.006;5.926;2023-02-11T01:07:41;102517.06;;;5.17;83.02
70909;BME280;58554;52.006;5.926;2023-02-11T01:10:08;102498.69;;;5.17;82.91
70909;BME280;58554;52.006;5.926;2023-02-11T01:12:35;102500.44;;;5.18;82.70
70909;BME280;58554;52.006;5.926;2023-02-11T01:15:02;102496.94;;;5.19;82.33
70909;BME280;58554;52.006;5.926;2023-02-11T01:17:29;102491.69;;;5.18;83.03
70909;BME280;58554;52.006;5.926;2023-02-11T01:19:58;102482.09;;;5.17;83.09
70909;BME280;58554;52.006;5.926;2023-02-11T01:22:24;102489.13;;;5.15;82.79
70909;BME280;58554;52.006;5.926;2023-02-11T01:24:51;102483.00;;;5.13;83.02
70909;BME280;58554;52.006;5.926;2023-02-11T01:27:17;102482.16;;;5.11;82.99
70909;BME280;58554;52.006;5.926;2023-02-11T01:29:44;102474.28;;;5.07;82.78
70909;BME280;58554;52.006;5.926;2023-02-11T01:32:10;102478.69;;;5.02;83.43
70909;BME280;58554;52.006;5.926;2023-02-11T01:34:37;102482.22;;;4.98;83.78
70909;BME280;58554;52.006;5.926;2023-02-11T01:37:06;102491.84;;;4.96;82.91
70909;BME280;58554;52.006;5.926;2023-02-11T01:39:33;102497.09;;;4.95;83.16
70909;BME280;58554;52.006;5.926;2023-02-11T01:41:59;102488.34;;;4.96;83.08
70909;BME280;58554;52.006;5.926;2023-02-11T01:44:28;102490.94;;;4.96;83.05
70909;BME280;58554;52.006;5.926;2023-02-11T01:46:56;102510.19;;;4.96;83.29
70909;BME280;58554;52.006;5.926;2023-02-11T01:49:26;102519.78;;;4.99;82.82
70909;BME280;58554;52.006;5.926;2023-02-11T01:51:59;102516.28;;;5.00;83.01
70909;BME280;58554;52.006;5.926;2023-02-11T01:54:36;102495.31;;;5.00;83.02
70909;BME280;58554;52.006;5.926;2023-02-11T01:57:10;102498.81;;;5.00;83.06
70909;BME280;58554;52.006;5.926;2023-02-11T01:59:46;102496.16;;;5.02;83.13
70909;BME280;58554;52.006;5.926;2023-02-11T02:02:23;102495.31;;;5.00;83.03
70909;BME280;58554;52.006;5.926;2023-02-11T02:05:01;102507.53;;;5.01;82.94
70909;BME280;58554;52.006;5.926;2023-02-11T02:07:37;102513.66;;;5.01;83.17
70909;BME280;58554;52.006;5.926;2023-02-11T02:10:16;102511.03;;;5.03;82.98
70909;BME280;58554;52.006;5.926;2023-02-11T02:12:45;102515.41;;;5.02;83.10
70909;BME280;58554;52.006;5.926;2023-02-11T02:15:27;102510.13;;;5.05;83.14
70909;BME280;58554;52.006;5.926;2023-02-11T02:18:08;102500.53;;;5.04;82.81
70909;BME280;58554;52.006;5.926;2023-02-11T02:21:06;102496.16;;;5.05;83.27
70909;BME280;58554;52.006;5.926;2023-02-11T02:24:02;102493.53;;;5.05;83.01
70909;BME280;58554;52.006;5.926;2023-02-11T02:30:41;102475.19;;;5.05;82.95
70909;BME280;58554;52.006;5.926;2023-02-11T02:33:35;102472.56;;;5.05;83.02
70909;BME280;58554;52.006;5.926;2023-02-11T02:36:20;102472.56;;;5.05;82.99
70909;BME280;58554;52.006;5.926;2023-02-11T02:38:53;102466.47;;;5.04;82.76
70909;BME280;58554;52.006;5.926;2023-02-11T02:41:26;102470.81;;;5.04;82.75
70909;BME280;58554;52.006;5.926;2023-02-11T02:43:55;102476.03;;;5.04;82.79
70909;BME280;58554;52.006;5.926;2023-02-11T02:46:24;102476.09;;;5.02;83.38
70909;BME280;58554;52.006;5.926;2023-02-11T02:48:57;102474.31;;;5.04;83.09
70909;BME280;58554;52.006;5.926;2023-02-11T02:51:53;102465.56;;;5.04;83.55
70909;BME280;58554;52.006;5.926;2023-02-11T02:55:05;102455.09;;;5.02;83.39
70909;BME280;58554;52.006;5.926;2023-02-11T02:57:52;102449.81;;;5.04;83.39
70909;BME280;58554;52.006;5.926;2023-02-11T03:00:39;102458.59;;;5.04;83.48
70909;BME280;58554;52.006;5.926;2023-02-11T03:03:21;102460.31;;;5.05;83.17
70909;BME280;58554;52.006;5.926;2023-02-11T03:06:02;102453.34;;;5.04;83.23
70909;BME280;58554;52.006;5.926;2023-02-11T03:08:37;102456.84;;;5.05;83.17
70909;BME280;58554;52.006;5.926;2023-02-11T03:11:11;102442.88;;;5.03;83.56
70909;BME280;58554;52.006;5.926;2023-02-11T03:13:42;102448.09;;;5.00;83.89
70909;BME280;58554;52.006;5.926;2023-02-11T03:16:14;102461.22;;;5.00;83.37
70909;BME280;58554;52.006;5.926;2023-02-11T03:18:48;102454.25;;;4.99;83.58
70909;BME280;58554;52.006;5.926;2023-02-11T03:21:27;102449.00;;;4.99;83.73
70909;BME280;58554;52.006;5.926;2023-02-11T03:24:02;102442.91;;;4.98;84.02
70909;BME280;58554;52.006;5.926;2023-02-11T03:26:36;102442.03;;;4.96;84.04
70909;BME280;58554;52.006;5.926;2023-02-11T03:29:14;102451.63;;;4.96;83.96
70909;BME280;58554;52.006;5.926;2023-02-11T03:31:51;102444.66;;;4.96;84.05
70909;BME280;58554;52.006;5.926;2023-02-11T03:34:29;102442.88;;;4.94;84.96
70909;BME280;58554;52.006;5.926;2023-02-11T03:37:07;102441.16;;;4.94;84.08
70909;BME280;58554;52.006;5.926;2023-02-11T03:39:40;102432.38;;;4.94;84.99
70909;BME280;58554;52.006;5.926;2023-02-11T03:42:13;102421.91;;;4.94;84.47
70909;BME280;58554;52.006;5.926;2023-02-11T03:44:45;102430.66;;;4.96;83.96
70909;BME280;58554;52.006;5.926;2023-02-11T03:47:20;102423.69;;;4.95;84.15
70909;BME280;58554;52.006;5.926;2023-02-11T03:49:57;102422.78;;;4.96;84.12
70909;BME280;58554;52.006;5.926;2023-02-11T03:52:30;102425.41;;;4.96;84.27
70909;BME280;58554;52.006;5.926;2023-02-11T03:55:00;102427.19;;;4.97;83.92
70909;BME280;58554;52.006;5.926;2023-02-11T03:57:34;102428.94;;;4.96;84.02
70909;BME280;58554;52.006;5.926;2023-02-11T04:00:03;102443.75;;;4.99;83.83
70909;BME280;58554;52.006;5.926;2023-02-11T04:02:34;102448.09;;;5.00;83.74
70909;BME280;58554;52.006;5.926;2023-02-11T04:05:02;102451.63;;;5.00;84.30
70909;BME280;58554;52.006;5.926;2023-02-11T04:07:32;102449.88;;;5.01;84.31
70909;BME280;58554;52.006;5.926;2023-02-11T04:09:59;102461.22;;;5.00;85.29
70909;BME280;58554;52.006;5.926;2023-02-11T04:12:26;102462.13;;;4.99;85.02
70909;BME280;58554;52.006;5.926;2023-02-11T04:14:52;102461.25;;;4.98;84.90
70909;BME280;58554;52.006;5.926;2023-02-11T04:17:19;102462.97;;;5.01;84.21
70909;BME280;58554;52.006;5.926;2023-02-11T04:19:45;102466.47;;;5.01;84.94
70909;BME280;58554;52.006;5.926;2023-02-11T04:22:12;102460.34;;;5.02;84.39
70909;BME280;58554;52.006;5.926;2023-02-11T04:24:41;102466.47;;;5.04;84.60
70909;BME280;58554;52.006;5.926;2023-02-11T04:27:08;102466.47;;;5.03;85.35
70909;BME280;58554;52.006;5.926;2023-02-11T04:29:35;102462.06;;;5.03;84.87
70909;BME280;58554;52.006;5.926;2023-02-11T04:32:01;102463.84;;;5.03;84.64
70909;BME280;58554;52.006;5.926;2023-02-11T04:34:28;102467.31;;;5.05;84.33
70909;BME280;58554;52.006;5.926;2023-02-11T04:36:54;102462.06;;;5.05;85.12
70909;BME280;58554;52.006;5.926;2023-02-11T04:39:21;102460.31;;;5.04;85.35
70909;BME280;58554;52.006;5.926;2023-02-11T04:41:50;102458.59;;;5.04;84.85
70909;BME280;58554;52.006;5.926;2023-02-11T04:44:16;102462.94;;;5.05;84.72
70909;BME280;58554;52.006;5.926;2023-02-11T04:46:43;102458.56;;;5.06;85.03
70909;BME280;58554;52.006;5.926;2023-02-11T04:49:11;102462.06;;;5.06;85.72
70909;BME280;58554;52.006;5.926;2023-02-11T04:51:39;102457.69;;;5.07;84.90
70909;BME280;58554;52.006;5.926;2023-02-11T04:54:08;102461.16;;;5.09;84.67
70909;BME280;58554;52.006;5.926;2023-02-11T04:56:36;102470.75;;;5.10;84.80
70909;BME280;58554;52.006;5.926;2023-02-11T04:59:05;102466.41;;;5.11;84.62
70909;BME280;58554;52.006;5.926;2023-02-11T05:01:32;102468.13;;;5.12;84.84
70909;BME280;58554;52.006;5.926;2023-02-11T05:03:59;102459.41;;;5.13;84.37
70909;BME280;58554;52.006;5.926;2023-02-11T05:06:26;102454.16;;;5.11;84.72
70909;BME280;58554;52.006;5.926;2023-02-11T05:08:52;102449.78;;;5.10;85.18
70909;BME280;58554;52.006;5.926;2023-02-11T05:11:20;102466.41;;;5.11;85.18
70909;BME280;58554;52.006;5.926;2023-02-11T05:13:49;102457.66;;;5.10;85.26
70909;BME280;58554;52.006;5.926;2023-02-11T05:16:18;102459.41;;;5.10;85.31
70909;BME280;58554;52.006;5.926;2023-02-11T05:18:45;102459.41;;;5.10;85.37
70909;BME280;58554;52.006;5.926;2023-02-11T05:21:13;102463.78;;;5.09;85.15
70909;BME280;58554;52.006;5.926;2023-02-11T05:23:42;102463.78;;;5.11;85.07
70909;BME280;58554;52.006;5.926;2023-02-11T05:26:10;102461.13;;;5.12;85.11
70909;BME280;58554;52.006;5.926;2023-02-11T05:28:40;102467.28;;;5.13;85.61
70909;BME280;58554;52.006;5.926;2023-02-11T05:31:07;102465.50;;;5.13;85.70
70909;BME280;58554;52.006;5.926;2023-02-11T05:33:37;102463.75;;;5.15;85.08
70909;BME280;58554;52.006;5.926;2023-02-11T05:36:06;102466.38;;;5.17;85.02
70909;BME280;58554;52.006;5.926;2023-02-11T05:38:36;102462.84;;;5.18;84.91
70909;BME280;58554;52.006;5.926;2023-02-11T05:41:05;102471.56;;;5.18;85.00
70909;BME280;58554;52.006;5.926;2023-02-11T05:43:33;102468.09;;;5.18;84.79
70909;BME280;58554;52.006;5.926;2023-02-11T05:46:00;102473.34;;;5.19;84.93
70909;BME280;58554;52.006;5.926;2023-02-11T05:48:27;102467.19;;;5.20;84.88
70909;BME280;58554;52.006;5.926;2023-02-11T05:50:56;102470.69;;;5.22;85.39
70909;BME280;58554;52.006;5.926;2023-02-11T05:53:23;102465.44;;;5.24;84.94
70909;BME280;58554;52.006;5.926;2023-02-11T05:55:49;102464.56;;;5.22;85.27
70909;BME280;58554;52.006;5.926;2023-02-11T05:58:16;102463.69;;;5.23;85.01
70909;BME280;58554;52.006;5.926;2023-02-11T06:00:42;102473.28;;;5.22;85.53
70909;BME280;58554;52.006;5.926;2023-02-11T06:03:09;102467.19;;;5.23;85.46
70909;BME280;58554;52.006;5.926;2023-02-11T06:05:35;102474.16;;;5.24;85.37
70909;BME280;58554;52.006;5.926;2023-02-11T06:08:04;102477.63;;;5.26;85.20
70909;BME280;58554;52.006;5.926;2023-02-11T06:10:31;102474.16;;;5.24;85.28
70909;BME280;58554;52.006;5.926;2023-02-11T06:12:58;102478.53;;;5.25;85.50
70909;BME280;58554;52.006;5.926;2023-02-11T06:15:24;102482.03;;;5.26;85.24
70909;BME280;58554;52.006;5.926;2023-02-11T06:17:51;102476.78;;;5.24;85.32
70909;BME280;58554;52.006;5.926;2023-02-11T06:20:18;102475.91;;;5.25;85.04
70909;BME280;58554;52.006;5.926;2023-02-11T06:22:45;102465.38;;;5.27;85.27
70909;BME280;58554;52.006;5.926;2023-02-11T06:25:14;102472.41;;;5.25;85.22
70909;BME280;58554;52.006;5.926;2023-02-11T06:27:40;102474.16;;;5.24;85.29
70909;BME280;58554;52.006;5.926;2023-02-11T06:30:08;102468.91;;;5.24;85.41
70909;BME280;58554;52.006;5.926;2023-02-11T06:32:36;102469.78;;;5.25;85.27
70909;BME280;58554;52.006;5.926;2023-02-11T06:35:02;102468.03;;;5.25;85.59
70909;BME280;58554;52.006;5.926;2023-02-11T06:37:29;102473.28;;;5.22;85.96
70909;BME280;58554;52.006;5.926;2023-02-11T06:39:56;102470.69;;;5.22;85.51
70909;BME280;58554;52.006;5.926;2023-02-11T06:42:25;102482.03;;;5.24;85.75
70909;BME280;58554;52.006;5.926;2023-02-11T06:44:51;102480.31;;;5.23;85.50
70909;BME280;58554;52.006;5.926;2023-02-11T06:47:18;102475.91;;;5.24;85.33
70909;BME280;58554;52.006;5.926;2023-02-11T06:49:45;102475.91;;;5.24;85.61
70909;BME280;58554;52.006;5.926;2023-02-11T06:52:11;102480.31;;;5.23;85.19
70909;BME280;58554;52.006;5.926;2023-02-11T06:54:38;102485.53;;;5.23;85.48
70909;BME280;58554;52.006;5.926;2023-02-11T06:57:04;102484.69;;;5.23;85.54
70909;BME280;58554;52.006;5.926;2023-02-11T06:59:33;102489.94;;;5.23;85.44
70909;BME280;58554;52.006;5.926;2023-02-11T07:02:00;102486.41;;;5.22;85.53
70909;BME280;58554;52.006;5.926;2023-02-11T07:04:26;102476.81;;;5.23;85.64
70909;BME280;58554;52.006;5.926;2023-02-11T07:06:53;102479.44;;;5.21;86.14
70909;BME280;58554;52.006;5.926;2023-02-11T07:09:20;102480.34;;;5.19;86.46
70909;BME280;58554;52.006;5.926;2023-02-11T07:11:46;102480.34;;;5.16;86.37
70909;BME280;58554;52.006;5.926;2023-02-11T07:14:13;102488.22;;;5.17;86.47
70909;BME280;58554;52.006;5.926;2023-02-11T07:16:42;102492.59;;;5.17;86.24
70909;BME280;58554;52.006;5.926;2023-02-11T07:19:09;102493.47;;;5.17;86.54
70909;BME280;58554;52.006;5.926;2023-02-11T07:21:35;102499.56;;;5.18;86.22
70909;BME280;58554;52.006;5.926;2023-02-11T07:24:05;102501.31;;;5.19;86.40
70909;BME280;58554;52.006;5.926;2023-02-11T07:26:32;102504.81;;;5.21;86.17
70909;BME280;58554;52.006;5.926;2023-02-11T07:28:59;102509.16;;;5.23;86.03
70909;BME280;58554;52.006;5.926;2023-02-11T07:31:27;102503.03;;;5.23;86.36
70909;BME280;58554;52.006;5.926;2023-02-11T07:33:59;102494.28;;;5.24;86.14
70909;BME280;58554;52.006;5.926;2023-02-11T07:36:28;102496.91;;;5.25;86.31
70909;BME280;58554;52.006;5.926;2023-02-11T07:38:56;102513.44;;;5.31;86.21
70909;BME280;58554;52.006;5.926;2023-02-11T07:41:25;102514.31;;;5.33;86.27
70909;BME280;58554;52.006;5.926;2023-02-11T07:43:52;102519.56;;;5.33;86.32
70909;BME280;58554;52.006;5.926;2023-02-11T07:46:23;102516.06;;;5.34;86.35
70909;BME280;58554;52.006;5.926;2023-02-11T07:48:51;102507.31;;;5.35;86.31
70909;BME280;58554;52.006;5.926;2023-02-11T07:51:23;102503.78;;;5.39;86.14
70909;BME280;58554;52.006;5.926;2023-02-11T07:53:51;102509.88;;;5.41;86.34
70909;BME280;58554;52.006;5.926;2023-02-11T07:56:21;102504.63;;;5.42;86.31
70909;BME280;58554;52.006;5.926;2023-02-11T07:58:49;102509.84;;;5.45;86.09
70909;BME280;58554;52.006;5.926;2023-02-11T08:01:21;102508.97;;;5.48;86.20
70909;BME280;58554;52.006;5.926;2023-02-11T08:03:49;102506.31;;;5.51;86.25
70909;BME280;58554;52.006;5.926;2023-02-11T08:06:18;102501.91;;;5.55;86.57
70909;BME280;58554;52.006;5.926;2023-02-11T08:08:49;102513.28;;;5.57;86.52
70909;BME280;58554;52.006;5.926;2023-02-11T08:11:17;102513.22;;;5.60;86.37
70909;BME280;58554;52.006;5.926;2023-02-11T08:13:45;102510.56;;;5.64;86.35
70909;BME280;58554;52.006;5.926;2023-02-11T08:16:17;102510.53;;;5.67;86.40
70909;BME280;58554;52.006;5.926;2023-02-11T08:18:46;102515.78;;;5.69;86.40
70909;BME280;58554;52.006;5.926;2023-02-11T08:21:14;102505.28;;;5.69;86.67
70909;BME280;58554;52.006;5.926;2023-02-11T08:23:44;102510.50;;;5.71;86.73
70909;BME280;58554;52.006;5.926;2023-02-11T08:26:13;102504.38;;;5.73;86.47
70909;BME280;58554;52.006;5.926;2023-02-11T08:28:42;102509.59;;;5.75;86.66
70909;BME280;58554;52.006;5.926;2023-02-11T08:31:13;102513.06;;;5.77;86.45
70909;BME280;58554;52.006;5.926;2023-02-11T08:33:42;102520.94;;;5.80;86.41
70909;BME280;58554;52.006;5.926;2023-02-11T08:36:11;102526.16;;;5.83;86.53
70909;BME280;58554;52.006;5.926;2023-02-11T08:38:39;102524.38;;;5.85;86.58
70909;BME280;58554;52.006;5.926;2023-02-11T08:41:10;102520.88;;;5.87;86.75
70909;BME280;58554;52.006;5.926;2023-02-11T08:43:37;102518.22;;;5.89;86.61
70909;BME280;58554;52.006;5.926;2023-02-11T08:46:04;102526.94;;;5.94;86.68
70909;BME280;58554;52.006;5.926;2023-02-11T08:48:30;102533.03;;;5.96;86.72
70909;BME280;58554;52.006;5.926;2023-02-11T08:50:57;102527.75;;;5.99;86.88
70909;BME280;58554;52.006;5.926;2023-02-11T08:53:23;102535.56;;;6.04;86.54
70909;BME280;58554;52.006;5.926;2023-02-11T08:55:53;102541.69;;;6.06;86.75
70909;BME280;58554;52.006;5.926;2023-02-11T08:58:23;102540.81;;;6.08;86.74
70909;BME280;58554;52.006;5.926;2023-02-11T09:00:49;102539.91;;;6.11;87.02
70909;BME280;58554;52.006;5.926;2023-02-11T09:03:16;102550.34;;;6.16;86.60
70909;BME280;58554;52.006;5.926;2023-02-11T09:05:43;102551.19;;;6.18;86.95
70909;BME280;58554;52.006;5.926;2023-02-11T09:08:13;102538.06;;;6.21;86.98
70909;BME280;58554;52.006;5.926;2023-02-11T09:10:39;102544.13;;;6.24;86.73
70909;BME280;58554;52.006;5.926;2023-02-11T09:13:07;102534.44;;;6.28;87.18
70909;BME280;58554;52.006;5.926;2023-02-11T09:15:36;102544.91;;;6.31;87.02
70909;BME280;58554;52.006;5.926;2023-02-11T09:18:04;102552.78;;;6.34;86.74
70909;BME280;58554;52.006;5.926;2023-02-11T09:20:31;102565.84;;;6.40;86.67
70909;BME280;58554;52.006;5.926;2023-02-11T09:22:58;102562.31;;;6.44;86.41
70909;BME280;58554;52.006;5.926;2023-02-11T09:25:25;102574.47;;;6.52;86.28
70909;BME280;58554;52.006;5.926;2023-02-11T09:27:52;102572.69;;;6.55;86.34
70909;BME280;58554;52.006;5.926;2023-02-11T09:30:20;102577.88;;;6.60;86.35
70909;BME280;58554;52.006;5.926;2023-02-11T09:32:49;102574.41;;;6.59;86.54
70909;BME280;58554;52.006;5.926;2023-02-11T09:35:16;102574.38;;;6.61;86.29
70909;BME280;58554;52.006;5.926;2023-02-11T09:37:42;102570.84;;;6.65;86.16
70909;BME280;58554;52.006;5.926;2023-02-11T09:40:12;102565.50;;;6.71;86.08
70909;BME280;58554;52.006;5.926;2023-02-11T09:42:45;102568.06;;;6.77;86.03
70909;BME280;58554;52.006;5.926;2023-02-11T09:45:18;102571.47;;;6.84;85.99
70909;BME280;58554;52.006;5.926;2023-02-11T09:47:54;102570.53;;;6.88;85.91
70909;BME280;58554;52.006;5.926;2023-02-11T09:50:29;102571.31;;;6.96;85.75
70909;BME280;58554;52.006;5.926;2023-02-11T09:53:01;102583.50;;;7.02;85.62
70909;BME280;58554;52.006;5.926;2023-02-11T09:55:34;102579.97;;;7.04;85.47
70909;BME280;58554;52.006;5.926;2023-02-11T09:58:10;102583.41;;;7.08;85.99
70909;BME280;58554;52.006;5.926;2023-02-11T10:00:42;102591.28;;;7.11;85.33
70909;BME280;58554;52.006;5.926;2023-02-11T10:12:21;102612.09;;;7.29;85.11
70909;BME280;58554;52.006;5.926;2023-02-11T10:15:18;102613.72;;;7.35;85.18
70909;BME280;58554;52.006;5.926;2023-02-11T10:18:04;102620.69;;;7.42;85.07
70909;BME280;58554;52.006;5.926;2023-02-11T10:21:00;102627.66;;;7.48;85.12
70909;BME280;58554;52.006;5.926;2023-02-11T10:23:44;102632.78;;;7.54;85.15
70909;BME280;58554;52.006;5.926;2023-02-11T10:26:17;102633.63;;;7.58;84.75
70909;BME280;58554;52.006;5.926;2023-02-11T10:28:46;102639.72;;;7.61;85.03
70909;BME280;58554;52.006;5.926;2023-02-11T10:31:17;102635.22;;;7.68;84.71
70909;BME280;58554;52.006;5.926;2023-02-11T10:33:50;102638.59;;;7.79;84.80
70909;BME280;58554;52.006;5.926;2023-02-11T10:36:28;102635.78;;;7.88;84.72
70909;BME280;58554;52.006;5.926;2023-02-11T10:38:57;102641.81;;;7.97;84.47
70909;BME280;58554;52.006;5.926;2023-02-11T10:41:27;102634.66;;;8.05;84.36
70909;BME280;58554;52.006;5.926;2023-02-11T10:43:59;102648.56;;;8.15;84.56
70909;BME280;58554;52.006;5.926;2023-02-11T10:46:30;102636.09;;;8.23;84.28
70909;BME280;58554;52.006;5.926;2023-02-11T10:49:00;102643.88;;;8.30;83.95
70909;BME280;58554;52.006;5.926;2023-02-11T10:51:30;102646.38;;;8.38;83.93
70909;BME280;58554;52.006;5.926;2023-02-11T10:54:10;102648.03;;;8.44;83.53
70909;BME280;58554;52.006;5.926;2023-02-11T10:56:45;102646.09;;;8.53;83.58
70909;BME280;58554;52.006;5.926;2023-02-11T10:59:18;102643.25;;;8.64;83.22
70909;BME280;58554;52.006;5.926;2023-02-11T11:01:52;102646.69;;;8.68;83.11
70909;BME280;58554;52.006;5.926;2023-02-11T11:04:38;102653.63;;;8.73;83.10
70909;BME280;58554;52.006;5.926;2023-02-11T11:07:28;102656.16;;;8.78;82.66
70909;BME280;58554;52.006;5.926;2023-02-11T11:09:58;102654.38;;;8.80;82.79
70909;BME280;58554;52.006;5.926;2023-02-11T11:12:31;102655.28;;;8.79;82.22
70909;BME280;58554;52.006;5.926;2023-02-11T11:15:12;102664.09;;;8.78;82.44
70909;BME280;58554;52.006;5.926;2023-02-11T11:17:43;102666.59;;;8.86;82.59
70909;BME280;58554;52.006;5.926;2023-02-11T11:20:29;102654.97;;;8.95;82.46
70909;BME280;58554;52.006;5.926;2023-02-11T11:23:14;102659.22;;;9.02;82.42
70909;BME280;58554;52.006;5.926;2023-02-11T11:25:45;102652.19;;;9.02;81.75
70909;BME280;58554;52.006;5.926;2023-02-11T11:28:28;102655.72;;;9.01;81.47
70909;BME280;58554;52.006;5.926;2023-02-11T11:31:00;102664.53;;;9.00;81.72
70909;BME280;58554;52.006;5.926;2023-02-11T11:33:30;102653.09;;;9.00;81.69
70909;BME280;58554;52.006;5.926;2023-02-11T11:36:03;102652.13;;;9.05;81.69
70909;BME280;58554;52.006;5.926;2023-02-11T11:38:43;102654.59;;;9.13;81.33
70909;BME280;58554;52.006;5.926;2023-02-11T11:41:21;102651.03;;;9.14;80.99
70909;BME280;58554;52.006;5.926;2023-02-11T11:44:01;102651.03;;;9.16;81.18
70909;BME280;58554;52.006;5.926;2023-02-11T11:46:54;102656.31;;;9.14;80.80
70909;BME280;58554;52.006;5.926;2023-02-11T11:49:53;102652.78;;;9.15;81.23
70909;BME280;58554;52.006;5.926;2023-02-11T11:52:51;102632.28;;;9.29;81.30
70909;BME280;58554;52.006;5.926;2023-02-11T11:55:31;102633.75;;;9.43;80.88
70909;BME280;58554;52.006;5.926;2023-02-11T11:58:03;102629.06;;;9.54;80.75
70909;BME280;58554;52.006;5.926;2023-02-11T12:00:39;102642.06;;;9.65;80.74
70909;BME280;58554;52.006;5.926;2023-02-11T12:03:51;102632.06;;;9.78;80.63
70909;BME280;58554;52.006;5.926;2023-02-11T12:06:42;102628.13;;;9.94;80.07
70909;BME280;58554;52.006;5.926;2023-02-11T12:09:23;102626.22;;;10.01;79.97
70909;BME280;58554;52.006;5.926;2023-02-11T12:12:13;102628.66;;;10.08;79.69
70909;BME280;58554;52.006;5.926;2023-02-11T12:14:57;102624.28;;;10.07;79.19
70909;BME280;58554;52.006;5.926;2023-02-11T12:17:51;102615.50;;;10.05;78.88
70909;BME280;58554;52.006;5.926;2023-02-11T12:20:49;102617.44;;;9.99;78.50
70909;BME280;58554;52.006;5.926;2023-02-11T12:23:37;102608.00;;;9.88;78.43
70909;BME280;58554;52.006;5.926;2023-02-11T12:26:19;102609.03;;;9.83;78.08
70909;BME280;58554;52.006;5.926;2023-02-11T12:29:02;102613.44;;;9.82;78.68
70909;BME280;58554;52.006;5.926;2023-02-11T12:31:48;102620.28;;;9.91;79.15
70909;BME280;58554;52.006;5.926;2023-02-11T12:34:41;102612.75;;;10.10;79.54
70909;BME280;58554;52.006;5.926;2023-02-11T12:37:38;102617.25;;;10.39;79.27
70909;BME280;58554;52.006;5.926;2023-02-11T12:40:24;102622.75;;;10.64;79.14
70909;BME280;58554;52.006;5.926;2023-02-11T12:43:05;102616.94;;;10.83;78.66
70909;BME280;58554;52.006;5.926;2023-02-11T12:46:00;102622.94;;;10.89;78.16
70909;BME280;58554;52.006;5.926;2023-02-11T12:49:05;102621.25;;;10.87;76.94
70909;BME280;58554;52.006;5.926;2023-02-11T12:52:01;102626.44;;;10.91;77.27
70909;BME280;58554;52.006;5.926;2023-02-11T12:54:39;102629.16;;;10.88;77.16
70909;BME280;58554;52.006;5.926;2023-02-11T12:57:17;102625.81;;;10.82;76.82
70909;BME280;58554;52.006;5.926;2023-02-11T12:59:54;102625.94;;;10.77;76.90
70909;BME280;58554;52.006;5.926;2023-02-11T13:02:35;102626.81;;;10.78;76.59
70909;BME280;58554;52.006;5.926;2023-02-11T13:05:21;102629.59;;;10.73;76.26
70909;BME280;58554;52.006;5.926;2023-02-11T13:07:54;102630.66;;;10.66;76.39
70909;BME280;58554;52.006;5.926;2023-02-11T13:10:32;102626.22;;;10.66;76.28
70909;BME280;58554;52.006;5.926;2023-02-11T13:13:04;102625.31;;;10.67;75.94
70909;BME280;58554;52.006;5.926;2023-02-11T13:15:40;102613.13;;;10.62;75.56
70909;BME280;58554;52.006;5.926;2023-02-11T13:18:18;102617.69;;;10.57;75.71
70909;BME280;58554;52.006;5.926;2023-02-11T13:20:58;102619.50;;;10.54;75.87
70909;BME280;58554;52.006;5.926;2023-02-11T13:23:39;102616.88;;;10.54;76.18
70909;BME280;58554;52.006;5.926;2023-02-11T13:26:20;102613.34;;;10.54;75.76
70909;BME280;58554;52.006;5.926;2023-02-11T13:29:09;102610.66;;;10.55;75.99
70909;BME280;58554;52.006;5.926;2023-02-11T13:31:52;102609.00;;;10.51;75.53
70909;BME280;58554;52.006;5.926;2023-02-11T13:34:26;102609.25;;;10.42;74.95
70909;BME280;58554;52.006;5.926;2023-02-11T13:37:35;102606.00;;;10.32;75.16
70909;BME280;58554;52.006;5.926;2023-02-11T13:40:19;102606.28;;;10.22;74.89
70909;BME280;58554;52.006;5.926;2023-02-11T13:42:54;102608.22;;;10.15;75.30